PWSweather.com
Personal Weather Stations
Station Observations
SWHWX01
St AppolinardFR 38160

St AppolinardFR 38160

Lat: 45.191, Lon: 5.268

Elevation: 1460

Station Type: Davis Vantage Pro2 Plus

Latest ConditionsUpdated 8:00:02 PM GMT+01:01 Tuesday, Nov 12, 2019
Currently Today's Max Today's Min Today's Average
Temperature 41.1°F5.1°C 49.0°F9.4°C 37.7°F3.2°C 42.6°F5.9°C
Dew Point 34.1°F1.2°C 39.2°F4.0°C 33.7°F0.9°C 35.6°F2.0°C
Winds 1.2 mph E1.9 kmh E 5.7 mph -9.2 kmh - - 2.9 mph 4.7 kmh
Wind Gusts 5.0 mph8.0 kmh 12.0 mph19.3 kmh - -
Humidity 76% 92% 58% 77%
Pressure 29.70 in1005.8 mb 29.91 in1012.9 mb 29.70 in1005.8 mb -
Hour Temp Dew Point Humidity Winds Wind Gusts Pressure Precip Precip Rate Daily Precip Total
08:00 PM 41.1°F5.1°C 34.1°F1.2°C 76% 1.2 mph E1.9 kmh E 5.0 mph8.0 kmh 29.70 in1005.8 mb - 0.00 in0.0 mm 0.00 in0.0 mm
07:30 PM 41.8°F5.4°C 34.5°F1.4°C 75% 2.2 mph E3.5 kmh E 5.0 mph8.0 kmh 29.71 in1006.1 mb - 0.00 in0.0 mm 0.00 in0.0 mm
07:00 PM 43.1°F6.2°C 34.7°F1.5°C 72% 1.6 mph N2.6 kmh N 4.0 mph6.4 kmh 29.72 in1006.4 mb - 0.00 in0.0 mm 0.00 in0.0 mm
06:30 PM 42.0°F5.6°C 34.6°F1.4°C 75% 2.6 mph N4.2 kmh N 5.0 mph8.0 kmh 29.73 in1006.8 mb - 0.00 in0.0 mm 0.00 in0.0 mm
06:00 PM 42.2°F5.7°C 34.8°F1.6°C 75% 3.1 mph N5.0 kmh N 4.0 mph6.4 kmh 29.73 in1006.8 mb - 0.00 in0.0 mm 0.00 in0.0 mm
05:30 PM 42.9°F6.1°C 35.2°F1.8°C 74% 4.6 mph NE7.4 kmh NE 6.0 mph9.7 kmh 29.73 in1006.8 mb - 0.00 in0.0 mm 0.00 in0.0 mm
05:00 PM 45.3°F7.4°C 35.4°F1.9°C 68% 2.1 mph ENE3.4 kmh ENE 5.0 mph8.0 kmh 29.72 in1006.4 mb - 0.00 in0.0 mm 0.00 in0.0 mm
04:30 PM 46.4°F8.0°C 36.0°F2.2°C 67% 2.0 mph ENE3.2 kmh ENE 10.0 mph16.1 kmh 29.72 in1006.4 mb - 0.00 in0.0 mm 0.00 in0.0 mm
04:00 PM 47.5°F8.6°C 35.9°F2.2°C 64% 4.5 mph N7.2 kmh N 7.0 mph11.3 kmh 29.73 in1006.8 mb - 0.00 in0.0 mm 0.00 in0.0 mm
03:30 PM 47.8°F8.8°C 36.6°F2.6°C 65% 2.7 mph NE4.3 kmh NE 7.0 mph11.3 kmh 29.73 in1006.8 mb - 0.00 in0.0 mm 0.00 in0.0 mm
03:00 PM 47.3°F8.5°C 35.7°F2.1°C 64% 2.4 mph NNE3.9 kmh NNE 4.0 mph6.4 kmh 29.74 in1007.1 mb - 0.00 in0.0 mm 0.00 in0.0 mm
02:30 PM 49.0°F9.4°C 35.7°F2.1°C 60% 1.9 mph NW3.1 kmh NW 9.0 mph14.5 kmh 29.74 in1007.1 mb - 0.00 in0.0 mm 0.00 in0.0 mm
02:00 PM 49.0°F9.4°C 34.9°F1.6°C 58% 2.1 mph N3.4 kmh N 4.0 mph6.4 kmh 29.75 in1007.5 mb - 0.00 in0.0 mm 0.00 in0.0 mm
01:30 PM 47.9°F8.8°C 35.1°F1.7°C 61% 5.6 mph N9.0 kmh N 7.0 mph11.3 kmh 29.76 in1007.8 mb - 0.00 in0.0 mm 0.00 in0.0 mm
01:00 PM 48.4°F9.1°C 34.7°F1.5°C 59% 4.5 mph ENE7.2 kmh ENE 12.0 mph19.3 kmh 29.78 in1008.5 mb - 0.00 in0.0 mm 0.00 in0.0 mm
12:30 PM 48.2°F9.0°C 35.0°F1.7°C 60% 2.0 mph ENE3.2 kmh ENE 4.0 mph6.4 kmh 29.79 in1008.8 mb - 0.00 in0.0 mm 0.00 in0.0 mm
12:00 PM 47.6°F8.7°C 34.8°F1.6°C 61% 2.3 mph ENE3.7 kmh ENE 3.0 mph4.8 kmh 29.81 in1009.5 mb - 0.00 in0.0 mm 0.00 in0.0 mm
11:30 AM 46.9°F8.3°C 33.7°F0.9°C 60% 4.3 mph E6.9 kmh E 8.0 mph12.9 kmh 29.82 in1009.8 mb - 0.00 in0.0 mm 0.00 in0.0 mm
11:00 AM 45.5°F7.5°C 34.0°F1.1°C 64% 5.6 mph NNW9.0 kmh NNW 8.0 mph12.9 kmh 29.83 in1010.2 mb - 0.00 in0.0 mm 0.00 in0.0 mm
10:30 AM 45.1°F7.3°C 35.2°F1.8°C 68% 4.3 mph NNE6.9 kmh NNE 7.0 mph11.3 kmh 29.84 in1010.5 mb - 0.00 in0.0 mm 0.00 in0.0 mm
10:00 AM 44.4°F6.9°C 36.6°F2.6°C 74% 3.4 mph NE5.5 kmh NE 6.0 mph9.7 kmh 29.84 in1010.5 mb - 0.00 in0.0 mm 0.00 in0.0 mm
09:30 AM 43.2°F6.2°C 36.5°F2.5°C 77% 2.0 mph NNE3.2 kmh NNE 5.0 mph8.0 kmh 29.85 in1010.8 mb - 0.00 in0.0 mm 0.00 in0.0 mm
09:00 AM 40.9°F4.9°C 35.2°F1.8°C 80% 5.7 mph N9.2 kmh N 7.0 mph11.3 kmh 29.86 in1011.2 mb - 0.00 in0.0 mm 0.00 in0.0 mm
08:30 AM 40.0°F4.4°C 34.7°F1.5°C 81% 3.3 mph NNE5.3 kmh NNE 6.0 mph9.7 kmh 29.85 in1010.8 mb - 0.00 in0.0 mm 0.00 in0.0 mm
08:00 AM 38.0°F3.3°C 33.9°F1.1°C 85% 0.2 mph NNE0.3 kmh NNE 3.0 mph4.8 kmh 29.84 in1010.5 mb - 0.00 in0.0 mm 0.00 in0.0 mm
07:30 AM 38.6°F3.7°C 34.8°F1.6°C 86% 0.2 mph NNE0.3 kmh NNE 1.0 mph1.6 kmh 29.85 in1010.8 mb - 0.00 in0.0 mm 0.00 in0.0 mm
07:00 AM 38.6°F3.7°C 35.4°F1.9°C 88% 2.5 mph NNE4.0 kmh NNE 4.0 mph6.4 kmh 29.85 in1010.8 mb - 0.00 in0.0 mm 0.00 in0.0 mm
06:30 AM 38.0°F3.3°C 35.0°F1.7°C 89% 1.9 mph NE3.1 kmh NE 5.0 mph8.0 kmh 29.86 in1011.2 mb - 0.00 in0.0 mm 0.00 in0.0 mm
06:00 AM 38.2°F3.4°C 35.2°F1.8°C 89% 3.6 mph N5.8 kmh N 5.0 mph8.0 kmh 29.86 in1011.2 mb - 0.00 in0.0 mm 0.00 in0.0 mm
05:30 AM 38.0°F3.3°C 35.3°F1.8°C 90% 4.7 mph N7.6 kmh N 6.0 mph9.7 kmh 29.86 in1011.2 mb - 0.00 in0.0 mm 0.00 in0.0 mm
05:00 AM 37.8°F3.2°C 35.1°F1.7°C 90% 4.2 mph N6.8 kmh N 6.0 mph9.7 kmh 29.87 in1011.5 mb - 0.00 in0.0 mm 0.00 in0.0 mm
04:30 AM 37.9°F3.3°C 35.5°F1.9°C 91% 3.2 mph N5.1 kmh N 5.0 mph8.0 kmh 29.88 in1011.9 mb - 0.00 in0.0 mm 0.00 in0.0 mm
04:00 AM 37.7°F3.2°C 35.3°F1.8°C 91% 3.9 mph N6.3 kmh N 4.0 mph6.4 kmh 29.89 in1012.2 mb - 0.00 in0.0 mm 0.00 in0.0 mm
03:30 AM 38.2°F3.4°C 35.5°F1.9°C 90% 4.4 mph N7.1 kmh N 6.0 mph9.7 kmh 29.89 in1012.2 mb - 0.00 in0.0 mm 0.00 in0.0 mm
03:00 AM 38.9°F3.8°C 36.2°F2.3°C 90% 2.6 mph N4.2 kmh N 3.0 mph4.8 kmh 29.90 in1012.5 mb - 0.00 in0.0 mm 0.00 in0.0 mm
02:30 AM 39.7°F4.3°C 36.7°F2.6°C 89% 2.4 mph N3.9 kmh N 4.0 mph6.4 kmh 29.90 in1012.5 mb - 0.00 in0.0 mm 0.00 in0.0 mm
02:00 AM 40.5°F4.7°C 37.8°F3.2°C 90% 4.5 mph N7.2 kmh N 7.0 mph11.3 kmh 29.90 in1012.5 mb - 0.00 in0.0 mm 0.00 in0.0 mm
01:30 AM 40.7°F4.8°C 38.3°F3.5°C 91% 0.8 mph NE1.3 kmh NE 5.0 mph8.0 kmh 29.90 in1012.5 mb - 0.00 in0.0 mm 0.00 in0.0 mm
01:00 AM 40.7°F4.8°C 38.3°F3.5°C 91% 1.7 mph NE2.7 kmh NE 2.0 mph3.2 kmh 29.91 in1012.9 mb - 0.00 in0.0 mm 0.00 in0.0 mm
12:30 AM 40.8°F4.9°C 38.7°F3.7°C 92% 0.5 mph NE0.8 kmh NE 3.0 mph4.8 kmh 29.91 in1012.9 mb - 0.00 in0.0 mm 0.00 in0.0 mm
12:00 AM 41.4°F5.2°C 39.2°F4.0°C 92% 0.1 mph NE0.2 kmh NE 2.0 mph3.2 kmh 29.90 in1012.5 mb - 0.00 in0.0 mm 0.00 in0.0 mm